Time;durP1;ratioP1;P1;durP2;ratioP2;P2;SDS_P1;SDS_P2;PMS_P1;PMS_P2;Temp;Humidity;BMP_temperature;BMP_pressure;BME280_temperature;BME280_humidity;BME280_pressure;Samples;Min_cycle;Max_cycle;Signal;HPM_P1;HPM_P2
2023/11/16 05:36:45;;;;;;;19.60;9.20;;;;;;;3.10;75.59;99077.15;108442;1260;96645;-80
2023/11/16 11:03:38;;;;;;;14.10;6.10;;;;;;;6.18;74.97;99099.81;102800;1289;635767;-75
2023/11/16 11:06:14;;;;;;;13.00;5.50;;;;;;;6.22;74.95;99102.77;104449;1270;94735;-75
2023/11/16 11:08:44;;;;;;;16.20;6.40;;;;;;;6.28;74.82;99101.39;105174;1260;94310;-75
2023/11/16 11:11:36;;;;;;;17.00;6.60;;;;;;;6.30;74.79;99101.79;105287;1254;107166;-74
2023/11/16 11:14:10;;;;;;;17.50;7.30;;;;;;;6.32;74.91;99097.12;104955;1256;97189;-74
2023/11/16 11:16:39;;;;;;;13.90;6.10;;;;;;;6.34;74.88;99095.95;105279;1254;185431;-76
2023/11/16 11:19:26;;;;;;;14.00;6.30;;;;;;;6.38;74.76;99093.81;105290;1257;94927;-74
2023/11/16 11:22:00;;;;;;;16.80;7.00;;;;;;;6.44;74.96;99093.52;105428;1257;94299;-79
2023/11/16 11:24:50;;;;;;;15.80;6.50;;;;;;;6.50;74.89;99098.23;105329;1251;107367;-75
2023/11/16 11:27:27;;;;;;;16.60;6.30;;;;;;;6.61;74.91;99095.40;105354;1251;94699;-75
2023/11/16 11:30:13;;;;;;;16.00;6.50;;;;;;;6.66;74.80;99093.70;105365;1258;107239;-76
2023/11/16 11:32:46;;;;;;;13.70;6.50;;;;;;;6.72;74.81;99089.84;105237;1262;95218;-75
2023/11/16 11:35:39;;;;;;;13.80;6.00;;;;;;;6.77;74.97;99091.84;105494;1251;95231;-76
2023/11/16 11:38:19;;;;;;;17.30;7.10;;;;;;;6.78;74.80;99086.10;105190;1260;108588;-75
2023/11/16 11:41:06;;;;;;;15.60;7.10;;;;;;;6.78;74.74;99082.44;105355;1274;95316;-75
2023/11/16 11:43:42;;;;;;;13.50;6.20;;;;;;;6.75;74.66;99086.82;105321;1259;107713;-75
2023/11/16 11:46:20;;;;;;;14.60;6.40;;;;;;;6.73;74.64;99091.18;105249;1253;95315;-74
2023/11/16 11:48:51;;;;;;;16.60;7.30;;;;;;;6.76;74.58;99088.88;105255;1251;95173;-76
2023/11/16 11:51:25;;;;;;;17.20;7.60;;;;;;;6.85;74.66;99088.54;105467;1256;108403;-76
2023/11/16 11:53:56;;;;;;;16.80;7.00;;;;;;;6.94;74.56;99090.30;105324;1251;95563;-75
2023/11/16 11:56:27;;;;;;;15.80;6.90;;;;;;;7.01;74.56;99086.94;105503;1251;107695;-77
2023/11/16 11:58:58;;;;;;;16.60;6.90;;;;;;;7.07;74.58;99080.45;105256;1257;95345;-75
2023/11/16 12:01:31;;;;;;;16.20;7.10;;;;;;;7.12;74.68;99075.70;105661;1258;95251;-76
2023/11/16 12:04:14;;;;;;;;;;;;;;;;;;;;;
2023/11/16 12:06:48;;;;;;;13.50;5.80;;;;;;;7.24;74.61;99066.90;105428;1257;96252;-76
2023/11/16 12:09:17;;;;;;;13.70;6.10;;;;;;;7.30;74.56;99069.05;105605;1250;107179;-74
2023/11/16 12:12:05;;;;;;;14.00;5.90;;;;;;;7.35;74.61;99064.88;105543;1254;95262;-76
2023/11/16 12:14:46;;;;;;;14.60;5.80;;;;;;;7.38;74.57;99062.95;105333;1254;95170;-75
2023/11/16 12:17:24;;;;;;;13.80;6.20;;;;;;;7.40;74.62;99058.38;105162;1260;108648;-75
2023/11/16 12:19:59;;;;;;;14.50;6.40;;;;;;;7.44;74.71;99055.50;105212;1260;95398;-75
2023/11/16 12:22:36;;;;;;;13.20;5.80;;;;;;;7.47;74.40;99058.34;105376;1257;108302;-74
2023/11/16 12:25:13;;;;;;;15.10;6.30;;;;;;;7.50;74.66;99053.55;105246;1268;95281;-77
2023/11/16 12:27:46;;;;;;;;;;;;;;;7.55;74.52;99049.38;105445;1253;95241;-75
2023/11/16 12:30:23;;;;;;;15.40;6.30;;;;;;;7.56;74.48;99047.92;105329;1255;108705;-74
2023/11/16 12:32:59;;;;;;;;;;;;;;;7.59;74.63;99045.63;105158;1259;96297;-74
2023/11/16 12:35:43;;;;;;;19.90;8.70;;;;;;;7.55;74.48;99037.52;105263;1264;109937;-74
2023/11/16 12:38:19;;;;;;;27.00;11.50;;;;;;;7.58;74.23;99038.77;105566;1254;95284;-76
2023/11/16 12:40:48;;;;;;;18.00;7.40;;;;;;;7.67;74.34;99034.58;105429;1259;95252;-76
2023/11/16 12:43:20;;;;;;;22.30;10.10;;;;;;;7.74;74.37;99029.72;105242;1257;107549;-75
2023/11/16 12:45:49;;;;;;;29.00;11.80;;;;;;;7.81;74.39;99028.72;105361;1267;95390;-75
2023/11/16 12:48:26;;;;;;;25.90;11.10;;;;;;;7.86;74.33;99029.48;105494;1254;107593;-78
2023/11/16 12:51:10;;;;;;;21.20;8.80;;;;;;;7.91;74.22;99022.50;105556;1254;95235;-78
2023/11/16 12:53:52;;;;;;;17.20;7.10;;;;;;;7.92;74.25;99020.66;105261;1257;95340;-75
2023/11/16 12:56:28;;;;;;;;;;;;;;;7.94;74.20;99011.40;105303;1254;109117;-76
2023/11/16 12:58:57;;;;;;;16.80;7.60;;;;;;;7.91;74.14;99009.59;105167;1257;95521;-75
2023/11/16 13:01:29;;;;;;;16.90;7.50;;;;;;;7.92;74.20;99009.73;105385;1251;109057;-73
2023/11/16 13:03:57;;;;;;;18.90;8.30;;;;;;;7.94;74.16;99004.31;105298;1253;95201;-76
2023/11/16 13:06:34;;;;;;;17.20;8.10;;;;;;;7.93;74.11;99004.20;105597;1253;95259;-75
2023/11/16 13:09:07;;;;;;;18.30;8.10;;;;;;;7.89;74.05;98993.84;105572;1256;108101;-79
2023/11/16 13:11:38;;;;;;;17.60;7.90;;;;;;;7.85;74.03;98988.27;105221;1257;96061;-75
2023/11/16 13:14:13;;;;;;;20.00;8.30;;;;;;;7.82;74.02;98985.80;105445;1256;107520;-76
2023/11/16 13:16:41;;;;;;;17.10;7.40;;;;;;;7.76;73.93;98990.36;105532;1259;95230;-75
2023/11/16 13:19:10;;;;;;;17.40;7.70;;;;;;;7.70;74.10;98989.01;105459;1268;95359;-75
2023/11/16 13:21:39;;;;;;;17.40;8.20;;;;;;;7.62;74.03;98993.88;105343;1254;110351;-76
2023/11/16 13:24:09;;;;;;;17.50;7.80;;;;;;;7.55;73.88;98999.48;105439;1253;95519;-75
2023/11/16 13:26:50;;;;;;;18.50;8.00;;;;;;;7.52;74.02;98998.42;105287;1271;107641;-76
2023/11/16 13:29:20;;;;;;;18.30;8.20;;;;;;;7.50;73.73;98993.28;105746;1255;95221;-75
2023/11/16 13:31:53;;;;;;;16.50;7.40;;;;;;;7.48;73.80;98993.17;105370;1257;95294;-76
2023/11/16 13:34:24;;;;;;;16.30;7.40;;;;;;;7.49;73.83;98996.84;105473;1256;109020;-75
2023/11/16 13:37:01;;;;;;;17.30;7.70;;;;;;;7.51;74.05;98992.09;105327;1251;96243;-77
2023/11/16 13:39:39;;;;;;;20.20;8.40;;;;;;;7.56;73.95;98997.46;105157;1259;108843;-77
2023/11/16 13:42:15;;;;;;;18.80;8.80;;;;;;;7.59;74.00;98999.58;105180;1259;95325;-78
2023/11/16 13:44:49;;;;;;;19.00;8.60;;;;;;;7.61;73.83;99004.90;105415;1254;95183;-75
